Lewistown Municipal Airport
KLWT : now visible

Airfield :











YOU CAN JOIN US ON...

 
LOGIN :

Register | Disclaimer

   EN    FR    IT 

 









Legend :    VFR   Marginal VFR   IFR   Intensive IFR   Very Intensive IFR
Visi :
Ceiling :
>= 8 km
>= 3000ft
5 to 8 km
1000 to 3000 ft
1500m to 5 km
500 to 1000 ft
800 to 1500m
200 to 500 ft
< 800m
< 200 ft
Symbols :   Thunderstorms  Fog  Heavy snow  Heavy precipitations  Wind > 20 kt






- Airport Elevation : 4170 ft
- IATA code : LWT


KLWT - Lewistown Municipal

CURRENT METAR :
  • 291654Z AUTO 10010KT 10SM CLR 18/07 A3013 RMK AO2 SLP183 T01780067

EXPIRED METARs :
  • 291554Z AUTO 10009KT 10SM CLR 15/05 A3014 RMK AO2 SLP188 T01500050
  • 291454Z AUTO 10011KT 10SM CLR 14/04 A3015 RMK AO2 SLP188 T01440039 55000

TAF KLWT
Valid from the 29 at 18:00 until the 30 at 18:00 UTC


291720Z 2918/3018 11009KT P6SM FEW090 SCT250
KZLC FIR / North America



MET'MAP, your aeronautical weather chart ! - Copyright ORBIFLY December 2007 - Disclaimer

ORBIFLY MET'MAP TEAM :

Programming & Development : Alexandra Zaïnal
Concept & original design : Baudouin d'Aumeries
Assistance for programming : Marc-Olivier Méhu
Technical & hardware support : Manuel Goepfert

Contact : metmap@orbifly.com




SOURCES & CREDITS :

   NOAA       Earth
Advisory